Nestor — V2FB3 — position and weather

sailwx.info

Track history (hours):
 
Tides and Currents Weather Stations Pressure Air Temp Water Temp Dewpoint Dewpoint Depression Visibility Wind Speed Wind Dir Waves Ship Positions

Nestor

Last reported at 2015-Apr-27 21:32 UTC. Time now 2015-Apr-27 22:17 UTC.
Position N 37°30' W 000°40'.

Length 88 m; draft 5 m.

Type: Cargo ship. MMSI: 305620000.

Date/timePositionNaut miles runAvg speedWind from/ knotsBaromVisibWave heightAir tempDewpointWater temp
2015-Apr-27 21:32N 37°30' W 000°40'7 6.9
2015-Apr-27 20:33N 37°35' W 000°33'7 6.7
2015-Apr-27 19:33N 37°40' W 000°28'7 7.3
2015-Apr-27 18:33N 37°46' W 000°23'7 7.2
2015-Apr-27 17:32N 37°52' W 000°18'7 7.1
2015-Apr-27 16:33N 37°58' W 000°14'7 7.3
2015-Apr-27 15:33N 38°04' W 000°09'134 6.7
2015-Apr-26 19:31N 39°51' E 001°35'7 7.3
2015-Apr-26 18:34N 39°57' E 001°40'8 7.6
2015-Apr-26 17:33N 40°03' E 001°46'8 7.9
2015-Apr-26 16:33N 40°09' E 001°53'8 8.2
2015-Apr-26 15:33N 40°15' E 001°59'8 8.0
2015-Apr-26 14:33N 40°21' E 002°06'8 7.8
2015-Apr-26 13:34N 40°27' E 002°12'8 7.7
2015-Apr-26 12:34N 40°33' E 002°19'8 7.9
2015-Apr-26 11:33N 40°40' E 002°25'8 8.0
2015-Apr-26 10:33N 40°46' E 002°32'8 7.6
2015-Apr-26 09:33N 40°52' E 002°38'8 7.8
2015-Apr-26 08:33N 40°58' E 002°44'8 8.2
2015-Apr-26 07:32N 41°04' E 002°51'73 8.6
2015-Apr-25 23:06N 42°01' E 003°52'8 8.1
2015-Apr-25 22:08N 42°07' E 003°58'5 8.2
2015-Apr-25 21:32N 42°11' E 004°02'10 8.3
2015-Apr-25 20:20N 42°20' E 004°10'7 8.3
2015-Apr-25 19:33N 42°25' E 004°15'8 8.3
2015-Apr-25 18:33N 42°32' E 004°22'10 8.8
2015-Apr-25 17:27N 42°39' E 004°30'9 8.7
2015-Apr-25 16:28N 42°46' E 004°36'9 8.5
2015-Apr-25 15:27N 42°53' E 004°43'8 7.8
2015-Apr-25 14:26N 42°60' E 004°50'10 7.9
2015-Apr-25 13:06N 43°08' E 004°58'4 7.2
2015-Apr-25 12:30N 43°12' E 005°01'7 7.0
2015-Apr-25 11:33N 43°18' E 004°59'6 6.0
2015-Apr-25 10:34N 43°24' E 005°00'1 0.5
2015-Apr-25 09:31N 43°24' E 005°01'0 0.0
2015-Apr-25 08:13N 43°24' E 005°01'0 0.0
2015-Apr-25 07:31N 43°24' E 005°01'0 0.0
2015-Apr-25 06:31N 43°24' E 005°01'0 0.0
2015-Apr-25 04:31N 43°24' E 005°01'0 0.0
2015-Apr-25 03:31N 43°24' E 005°01'0 0.0
2015-Apr-25 02:31N 43°24' E 005°01'0 0.0
2015-Apr-25 01:31N 43°24' E 005°01'0 0.0
2015-Apr-25 00:31N 43°24' E 005°01'0 0.0
2015-Apr-24 23:31N 43°24' E 005°01'0 0.0
2015-Apr-24 22:31N 43°24' E 005°01'0 0.0
2015-Apr-24 21:31N 43°24' E 005°01'0 0.0
2015-Apr-24 20:28N 43°24' E 005°01'0 0.0
2015-Apr-24 19:31N 43°24' E 005°01'0 0.0
2015-Apr-24 18:31N 43°24' E 005°01'0 0.0
2015-Apr-24 17:31N 43°24' E 005°01'0 0.0
2015-Apr-24 16:31N 43°24' E 005°01'0 0.0
2015-Apr-24 15:28N 43°24' E 005°01'0 0.0
2015-Apr-24 14:25N 43°24' E 005°01'0 0.0
2015-Apr-24 13:31N 43°24' E 005°01'0 0.0
2015-Apr-24 12:31N 43°24' E 005°01'0 0.0
2015-Apr-24 11:25N 43°24' E 005°01'1 0.9
2015-Apr-24 10:33N 43°24' E 004°60'7 6.6
2015-Apr-24 09:33N 43°18' E 004°60'10 8.6
2015-Apr-24 08:22N 43°09' E 005°08'8 9.3
2015-Apr-24 07:29N 43°05' E 005°18'11 8.8
2015-Apr-24 06:12N 42°60' E 005°31'6 8.8
2015-Apr-24 05:31N 42°57' E 005°39'149 8.3
2015-Apr-23 11:33N 44°17' E 008°32'3 2.8
2015-Apr-23 10:32N 44°19' E 008°30'0 0.0
2015-Apr-23 09:23N 44°19' E 008°30'0 0.0
2015-Apr-23 08:29N 44°19' E 008°30'0 0.0
2015-Apr-23 07:32N 44°19' E 008°30'0 0.0
2015-Apr-23 06:14N 44°19' E 008°30'0 0.0
2015-Apr-23 05:29N 44°19' E 008°30'0 0.0
2015-Apr-23 04:23N 44°19' E 008°30'0 0.0
2015-Apr-23 03:29N 44°19' E 008°30'0 0.0
2015-Apr-22 22:29N 44°19' E 008°30'0 0.0
2015-Apr-22 21:05N 44°19' E 008°30'0 0.0
2015-Apr-22 20:05N 44°19' E 008°30'0 0.0
2015-Apr-22 18:26N 44°19' E 008°30'0 0.0
2015-Apr-22 17:11N 44°19' E 008°30'0 0.0
2015-Apr-22 15:33N 44°19' E 008°30'5 4.4
2015-Apr-22 14:28N 44°15' E 008°34'12 9.7
2015-Apr-22 13:10N 44°04' E 008°41'6 9.3
2015-Apr-22 12:33N 43°58' E 008°45'10 9.6
2015-Apr-22 11:33N 43°50' E 008°51'10 9.7
2015-Apr-22 10:33N 43°41' E 008°57'10 9.8
2015-Apr-22 09:33N 43°32' E 009°03'10 9.9
2015-Apr-22 08:33N 43°23' E 009°09'10 9.8
2015-Apr-22 07:33N 43°16' E 009°18'9 9.3
2015-Apr-22 06:33N 43°09' E 009°26'23 9.3
2015-Apr-22 04:08N 42°53' E 009°48'10 9.9
2015-Apr-22 03:06N 42°47' E 009°59'6 9.8
2015-Apr-22 02:32N 42°43' E 010°05'46 8.8
2015-Apr-21 21:23N 42°11' E 010°49'35 8.7
2015-Apr-21 17:22N 41°47' E 011°23'7 8.9
2015-Apr-21 16:33N 41°42' E 011°29'9 8.7
2015-Apr-21 15:33N 41°36' E 011°38'98 8.7
2015-Apr-21 04:21N 40°38' E 013°22'10 9.3
2015-Apr-21 03:16N 40°36' E 013°35'7 9.6
2015-Apr-21 02:32N 40°34' E 013°44'9 9.3
2015-Apr-21 01:33N 40°32' E 013°56'9 9.4
2015-Apr-21 00:33N 40°30' E 014°08'9 8.7
2015-Apr-20 23:33N 40°31' E 014°19'9 9.3
2015-Apr-20 22:33N 40°34' E 014°31'4 0.1
2015-Apr-19 15:05N 40°32' E 014°26'610.0
2015-Apr-19 14:28N 40°30' E 014°19'9 9.6
2015-Apr-19 13:32N 40°30' E 014°07'9 9.5
2015-Apr-19 12:33N 40°32' E 013°55'12 9.3
2015-Apr-19 11:18N 40°35' E 013°40'  
Track history (hours):
 
Tides and Currents Weather Stations Pressure Air Temp Water Temp Dewpoint Dewpoint Depression Visibility Wind Speed Wind Dir Waves Ship Positions

Nestor

Last reported at 2015-Apr-27 21:32 UTC. Time now 2015-Apr-27 22:17 UTC.
Position N 37°30' W 000°40'.

Length 88 m; draft 5 m.

Type: Cargo ship. MMSI: 305620000.

Date/timePositionNaut miles runAvg speedWind from/ knotsBaromVisibWave heightAir tempDewpointWater temp
2015-Apr-27 21:32N 37°30' W 000°40'7 6.9
2015-Apr-27 20:33N 37°35' W 000°33'7 6.7
2015-Apr-27 19:33N 37°40' W 000°28'7 7.3
2015-Apr-27 18:33N 37°46' W 000°23'7 7.2
2015-Apr-27 17:32N 37°52' W 000°18'7 7.1
2015-Apr-27 16:33N 37°58' W 000°14'7 7.3
2015-Apr-27 15:33N 38°04' W 000°09'134 6.7
2015-Apr-26 19:31N 39°51' E 001°35'7 7.3
2015-Apr-26 18:34N 39°57' E 001°40'8 7.6
2015-Apr-26 17:33N 40°03' E 001°46'8 7.9
2015-Apr-26 16:33N 40°09' E 001°53'8 8.2
2015-Apr-26 15:33N 40°15' E 001°59'8 8.0
2015-Apr-26 14:33N 40°21' E 002°06'8 7.8
2015-Apr-26 13:34N 40°27' E 002°12'8 7.7
2015-Apr-26 12:34N 40°33' E 002°19'8 7.9
2015-Apr-26 11:33N 40°40' E 002°25'8 8.0
2015-Apr-26 10:33N 40°46' E 002°32'8 7.6
2015-Apr-26 09:33N 40°52' E 002°38'8 7.8
2015-Apr-26 08:33N 40°58' E 002°44'8 8.2
2015-Apr-26 07:32N 41°04' E 002°51'73 8.6
2015-Apr-25 23:06N 42°01' E 003°52'8 8.1
2015-Apr-25 22:08N 42°07' E 003°58'5 8.2
2015-Apr-25 21:32N 42°11' E 004°02'10 8.3
2015-Apr-25 20:20N 42°20' E 004°10'7 8.3
2015-Apr-25 19:33N 42°25' E 004°15'8 8.3
2015-Apr-25 18:33N 42°32' E 004°22'10 8.8
2015-Apr-25 17:27N 42°39' E 004°30'9 8.7
2015-Apr-25 16:28N 42°46' E 004°36'9 8.5
2015-Apr-25 15:27N 42°53' E 004°43'8 7.8
2015-Apr-25 14:26N 42°60' E 004°50'10 7.9
2015-Apr-25 13:06N 43°08' E 004°58'4 7.2
2015-Apr-25 12:30N 43°12' E 005°01'7 7.0
2015-Apr-25 11:33N 43°18' E 004°59'6 6.0
2015-Apr-25 10:34N 43°24' E 005°00'1 0.5
2015-Apr-25 09:31N 43°24' E 005°01'0 0.0
2015-Apr-25 08:13N 43°24' E 005°01'0 0.0
2015-Apr-25 07:31N 43°24' E 005°01'0 0.0
2015-Apr-25 06:31N 43°24' E 005°01'0 0.0
2015-Apr-25 04:31N 43°24' E 005°01'0 0.0
2015-Apr-25 03:31N 43°24' E 005°01'0 0.0
2015-Apr-25 02:31N 43°24' E 005°01'0 0.0
2015-Apr-25 01:31N 43°24' E 005°01'0 0.0
2015-Apr-25 00:31N 43°24' E 005°01'0 0.0
2015-Apr-24 23:31N 43°24' E 005°01'0 0.0
2015-Apr-24 22:31N 43°24' E 005°01'0 0.0
2015-Apr-24 21:31N 43°24' E 005°01'0 0.0
2015-Apr-24 20:28N 43°24' E 005°01'0 0.0
2015-Apr-24 19:31N 43°24' E 005°01'0 0.0
2015-Apr-24 18:31N 43°24' E 005°01'0 0.0
2015-Apr-24 17:31N 43°24' E 005°01'0 0.0
2015-Apr-24 16:31N 43°24' E 005°01'0 0.0
2015-Apr-24 15:28N 43°24' E 005°01'0 0.0
2015-Apr-24 14:25N 43°24' E 005°01'0 0.0
2015-Apr-24 13:31N 43°24' E 005°01'0 0.0
2015-Apr-24 12:31N 43°24' E 005°01'0 0.0
2015-Apr-24 11:25N 43°24' E 005°01'1 0.9
2015-Apr-24 10:33N 43°24' E 004°60'7 6.6
2015-Apr-24 09:33N 43°18' E 004°60'10 8.6
2015-Apr-24 08:22N 43°09' E 005°08'8 9.3
2015-Apr-24 07:29N 43°05' E 005°18'11 8.8
2015-Apr-24 06:12N 42°60' E 005°31'6 8.8
2015-Apr-24 05:31N 42°57' E 005°39'149 8.3
2015-Apr-23 11:33N 44°17' E 008°32'3 2.8
2015-Apr-23 10:32N 44°19' E 008°30'0 0.0
2015-Apr-23 09:23N 44°19' E 008°30'0 0.0
2015-Apr-23 08:29N 44°19' E 008°30'0 0.0
2015-Apr-23 07:32N 44°19' E 008°30'0 0.0
2015-Apr-23 06:14N 44°19' E 008°30'0 0.0
2015-Apr-23 05:29N 44°19' E 008°30'0 0.0
2015-Apr-23 04:23N 44°19' E 008°30'0 0.0
2015-Apr-23 03:29N 44°19' E 008°30'0 0.0
2015-Apr-22 22:29N 44°19' E 008°30'0 0.0
2015-Apr-22 21:05N 44°19' E 008°30'0 0.0
2015-Apr-22 20:05N 44°19' E 008°30'0 0.0
2015-Apr-22 18:26N 44°19' E 008°30'0 0.0
2015-Apr-22 17:11N 44°19' E 008°30'0 0.0
2015-Apr-22 15:33N 44°19' E 008°30'5 4.4
2015-Apr-22 14:28N 44°15' E 008°34'12 9.7
2015-Apr-22 13:10N 44°04' E 008°41'6 9.3
2015-Apr-22 12:33N 43°58' E 008°45'10 9.6
2015-Apr-22 11:33N 43°50' E 008°51'10 9.7
2015-Apr-22 10:33N 43°41' E 008°57'10 9.8
2015-Apr-22 09:33N 43°32' E 009°03'10 9.9
2015-Apr-22 08:33N 43°23' E 009°09'10 9.8
2015-Apr-22 07:33N 43°16' E 009°18'9 9.3
2015-Apr-22 06:33N 43°09' E 009°26'23 9.3
2015-Apr-22 04:08N 42°53' E 009°48'10 9.9
2015-Apr-22 03:06N 42°47' E 009°59'6 9.8
2015-Apr-22 02:32N 42°43' E 010°05'46 8.8
2015-Apr-21 21:23N 42°11' E 010°49'35 8.7
2015-Apr-21 17:22N 41°47' E 011°23'7 8.9
2015-Apr-21 16:33N 41°42' E 011°29'9 8.7
2015-Apr-21 15:33N 41°36' E 011°38'98 8.7
2015-Apr-21 04:21N 40°38' E 013°22'10 9.3
2015-Apr-21 03:16N 40°36' E 013°35'7 9.6
2015-Apr-21 02:32N 40°34' E 013°44'9 9.3
2015-Apr-21 01:33N 40°32' E 013°56'9 9.4
2015-Apr-21 00:33N 40°30' E 014°08'9 8.7
2015-Apr-20 23:33N 40°31' E 014°19'9 9.3
2015-Apr-20 22:33N 40°34' E 014°31'4 0.1
2015-Apr-19 15:05N 40°32' E 014°26'610.0
2015-Apr-19 14:28N 40°30' E 014°19'9 9.6
2015-Apr-19 13:32N 40°30' E 014°07'9 9.5
2015-Apr-19 12:33N 40°32' E 013°55'12 9.3
2015-Apr-19 11:18N 40°35' E 013°40'  

Dump ship's entire track history